Cedar Lake, MI (48812)

2:04 PM EST on November 23, 2014 (GMT -0500)
Earth and Atmospheric Sciences, CMU | Change Station
CLOSE
Current Station
Personal Weather Station
Location: Mount Pleasant, MI
Elevation: 794 ft
Nearby Weather Stations

Elev 794 ft 43.58 °N, 84.77 °W | Updated 3 seconds ago

Overcast
Overcast
48.8 °F
Feels Like 47 °F
N
4.0
Wind Variable Wind from SSE
Gusts 7.0 mph

Today
High -- | Low -- °F
--% Chance of Precip.
Yesterday
High -- | Low -- °F
Precip. -- in
7:43 AM 5:08 PM
New Moon, 2% visible
Pressure 29.71 in
Visibility 7.0 miles
Clouds Scattered Clouds 6000 ft
Mostly Cloudy 8500 ft
Overcast 11000 ft
Windchill 47 °F
Dew Point 47 °F
Humidity 93%
Rainfall 0.00 in
Snow Depth Not available.
UV 1 out of 12
Pollen .10 out of 12
Air Quality Not available.
Flu Activity Not available.
METAR KAMN 231851Z AUTO 17004KT 7SM SCT060 BKN085 OVC110 10/08 A2971 RMK AO2 T00980083

More Conditions Fewer Conditions

Pressure 29.71 in
Visibility 7.0 miles
Clouds Scattered Clouds 6000 ft
Mostly Cloudy 8500 ft
Overcast 11000 ft
Windchill 47 °F
Dew Point 47 °F
Humidity 93%
Rainfall 0.00 in
Snow Depth Not available.
UV 1 out of 12
Pollen .10 out of 12
Air Quality Not available.
Flu Activity Not available.
METAR KAMN 231851Z AUTO 17004KT 7SM SCT060 BKN085 OVC110 10/08 A2971 RMK AO2 T00980083

More Conditions Fewer Conditions

10-Day Weather Forecast

Almanac

Astronomy

Nov. 23, 2014 Rise Set
Actual Time
Civil Twilight
Nautical Twilight
Astronomical Twilight
Moon
Length of Visible Light
Length of Day
Tomorrow will be .
, % of the Moon is Illuminated

Today's Extremes

State Highs State Lows

Community

WunderPhotos

Upload Photos

1,773,135 photos uploaded!

WunderBlogs® & News

Nearby

Air Quality

  Air Quality AQ Index Pollutant
Not available.

Snow Depth

Station Depth Elevation

Earthquake Activity

City Distance Mag. Time & Date
Minimum magnitude displayed is 2.5.

Coastal Water Temperatures

Place Temperature

Nearby Weather Stations